Bullock, NC

10:19 PM EDT on August 29, 2016 (GMT -0400)
Henderson-Oxford

Weather History for KHNZ - March, 2013

Change the Weather History Date:

Tuesday, March 26, 2013

  Actual Average (KTDF) Record (KTDF)
Temperature  
Mean Temperature 39 °F -  
Max Temperature 47 °F 62 °F 82 °F (2002)
Min Temperature 31 °F 36 °F 23 °F (1974)
Degree Days  
Heating Degree Days 26    
Moisture  
Dew Point 24 °F    
Average Humidity 53    
Maximum Humidity 74    
Minimum Humidity 40    
Precipitation  
Precipitation 0.00 in - - ()
Sea Level Pressure  
Sea Level Pressure 29.91 in    
Wind  
Wind Speed 6 mph (West)    
Max Wind Speed 10 mph    
Max Gust Speed 16 mph    
Visibility 10 miles    
Events      
Averages and records for this station are not official NWS values.
T = Trace of Precipitation, MM = Missing Value Source: NWS Daily Summary

Daily Weather History Graph

Daily Weather History Graph

Search for Another Location

Airport or City:

Trip Planner

Search our weather history database for the weather conditions in past years. The results will help you decide how hot, cold, wet, or windy it might be!

Date:

Astronomy

Mar. 26, 2013 Rise Set
Actual Time 7:08 AM EDT 7:31 PM EDT
Civil Twilight 6:42 AM EDT 7:57 PM EDT
Nautical Twilight 6:12 AM EDT 8:27 PM EDT
Astronomical Twilight 5:41 AM EDT 8:58 PM EDT
Moon 7:05 PM EDT (3/26) 6:23 AM EDT (3/26)
Length of Visible Light 13h 14m
Length of Day
12h 22m
Waxing Gibbous, 99% of the Moon is Illuminated
Mar 26
Waxing Gibbous
Mar 27
Full
Apr 3
Last Quarter
Apr 10
New
Apr 18
First Quarter

Hourly Weather History & Observations

Time (EDT) Temp. Windchill Dew Point Humidity Pressure Visibility Wind Dir Wind Speed Gust Speed Precip Events Conditions
12:15 AM 38.3 °F 32.5 °F 22.6 °F 53% 29.78 in 10.0 mi West 8.1 mph - N/A   Overcast
12:35 AM 37.6 °F 33.1 °F 23.2 °F 56% 29.79 in 10.0 mi West 5.8 mph - N/A   Overcast
12:55 AM 37.9 °F 32.7 °F 23.0 °F 55% 29.79 in 10.0 mi West 6.9 mph - N/A   Overcast
1:15 AM 37.9 °F 33.5 °F 23.2 °F 55% 29.79 in 10.0 mi WSW 5.8 mph - N/A   Overcast
1:35 AM 37.9 °F 33.5 °F 23.2 °F 55% 29.79 in 10.0 mi West 5.8 mph - N/A   Overcast
1:55 AM 37.8 °F 32.5 °F 23.5 °F 57% 29.80 in 10.0 mi West 6.9 mph - N/A   Overcast
2:15 AM 37.8 °F 32.5 °F 23.7 °F 57% 29.80 in 10.0 mi West 6.9 mph - N/A   Overcast
2:55 AM 37.4 °F 32.1 °F 23.5 °F 57% 29.81 in 10.0 mi West 6.9 mph - N/A   Overcast
3:15 AM 36.5 °F 31.8 °F 23.5 °F 59% 29.81 in 10.0 mi West 5.8 mph - N/A   Scattered Clouds
3:55 AM 35.1 °F 31.0 °F 23.5 °F 63% 29.81 in 10.0 mi WSW 4.6 mph - N/A   Clear
4:15 AM 34.3 °F 31.4 °F 23.5 °F 65% 29.82 in 10.0 mi WSW 3.5 mph - N/A   Clear
4:35 AM 33.4 °F 28.1 °F 23.7 °F 68% 29.82 in 10.0 mi WSW 5.8 mph - N/A   Clear
4:55 AM 32.9 °F 28.5 °F 23.9 °F 69% 29.82 in 10.0 mi WSW 4.6 mph - N/A   Clear
5:15 AM 33.1 °F 28.7 °F 23.9 °F 69% 29.84 in 10.0 mi WSW 4.6 mph - N/A   Clear
5:35 AM 33.1 °F 28.7 °F 23.9 °F 69% 29.84 in 10.0 mi WSW 4.6 mph - N/A   Clear
5:55 AM 32.9 °F 28.5 °F 23.9 °F 69% 29.84 in 10.0 mi WSW 4.6 mph - N/A   Clear
6:15 AM 32.2 °F 28.9 °F 23.9 °F 72% 29.85 in 10.0 mi WSW 3.5 mph - N/A   Scattered Clouds
6:35 AM 32.0 °F 27.5 °F 23.9 °F 72% 29.85 in 10.0 mi WSW 4.6 mph - N/A   Scattered Clouds
6:55 AM 32.0 °F 28.7 °F 23.9 °F 72% 29.85 in 10.0 mi WSW 3.5 mph - N/A   Clear
7:15 AM 31.3 °F 26.6 °F 23.9 °F 74% 29.85 in 10.0 mi WSW 4.6 mph - N/A   Clear
7:35 AM 31.8 °F 28.5 °F 23.9 °F 73% 29.85 in 10.0 mi WSW 3.5 mph - N/A   Clear
7:55 AM 32.4 °F 27.9 °F 24.4 °F 73% 29.86 in 10.0 mi WSW 4.6 mph - N/A   Clear
8:15 AM 34.2 °F 31.2 °F 25.0 °F 69% 29.87 in 10.0 mi WSW 3.5 mph - N/A   Clear
8:35 AM 36.1 °F 31.4 °F 25.2 °F 64% 29.88 in 10.0 mi WSW 5.8 mph - N/A   Clear
8:55 AM 38.1 °F 33.7 °F 25.5 °F 61% 29.89 in 10.0 mi West 5.8 mph - N/A   Scattered Clouds
9:15 AM 40.1 °F 36.1 °F 25.3 °F 56% 29.89 in 10.0 mi West 5.8 mph - N/A   Overcast
9:35 AM 42.1 °F 37.7 °F 25.3 °F 52% 29.90 in 10.0 mi WNW 6.9 mph - N/A   Overcast
9:55 AM 43.3 °F 39.2 °F 25.2 °F 49% 29.90 in 10.0 mi NNW 6.9 mph - N/A   Mostly Cloudy
10:15 AM 44.2 °F 38.8 °F 25.0 °F 47% 29.90 in 10.0 mi NW 10.4 mph 16.1 mph N/A   Scattered Clouds
10:35 AM 44.6 °F 39.2 °F 24.8 °F 46% 29.91 in 10.0 mi WNW 10.4 mph - N/A   Scattered Clouds
10:55 AM 44.8 °F 39.4 °F 24.6 °F 45% 29.91 in 10.0 mi NNW 10.4 mph 16.1 mph N/A   Clear
11:15 AM 45.7 °F 41.5 °F 24.6 °F 44% 29.91 in 10.0 mi North 8.1 mph - N/A   Scattered Clouds
11:35 AM 47.7 °F - 25.9 °F 43% 29.92 in 10.0 mi NNW 9.2 mph - N/A   Mostly Cloudy
12:15 PM 45.5 °F 43.2 °F 23.9 °F 43% 29.92 in 10.0 mi North 4.6 mph - N/A   Overcast
12:35 PM 46.6 °F - 25.2 °F 43% 29.92 in 10.0 mi NNW 6.9 mph - N/A   Overcast
12:55 PM 45.5 °F 41.3 °F 23.9 °F 43% 29.92 in 10.0 mi NNW 8.1 mph - N/A   Overcast
1:15 PM 45.7 °F 42.0 °F 25.0 °F 44% 29.92 in 10.0 mi West 6.9 mph - N/A   Overcast
1:35 PM 45.9 °F 41.2 °F 24.8 °F 44% 29.92 in 10.0 mi WNW 9.2 mph - N/A   Overcast
1:55 PM 45.5 °F 42.5 °F 23.9 °F 43% 29.92 in 10.0 mi NW 5.8 mph - N/A   Overcast
2:15 PM 46.4 °F 41.5 °F 23.9 °F 41% 29.92 in 10.0 mi NW 10.4 mph - N/A   Overcast
2:35 PM 45.7 °F 42.7 °F 25.0 °F 44% 29.92 in 10.0 mi WNW 5.8 mph - N/A   Overcast
2:55 PM 45.7 °F 41.0 °F 25.0 °F 44% 29.93 in 10.0 mi West 9.2 mph - N/A   Overcast
3:15 PM 46.4 °F 41.9 °F 24.6 °F 42% 29.92 in 10.0 mi WNW 9.2 mph - N/A   Overcast
3:35 PM 46.6 °F - 24.1 °F 41% 29.92 in 10.0 mi WNW 9.2 mph - N/A   Overcast
3:55 PM 45.9 °F 41.2 °F 24.8 °F 44% 29.93 in 10.0 mi WNW 9.2 mph - N/A   Overcast
4:15 PM 46.4 °F 42.9 °F 23.7 °F 41% 29.93 in 10.0 mi NW 6.9 mph - N/A   Overcast
4:35 PM 45.9 °F 42.3 °F 23.9 °F 42% 29.93 in 10.0 mi WNW 6.9 mph - N/A   Overcast
4:55 PM 46.4 °F 43.5 °F 23.2 °F 40% 29.94 in 10.0 mi West 5.8 mph - N/A   Overcast
5:15 PM 46.4 °F 42.4 °F 23.7 °F 41% 29.94 in 10.0 mi WNW 8.1 mph - N/A   Overcast
5:35 PM 45.7 °F 42.7 °F 24.3 °F 43% 29.95 in 10.0 mi WNW 5.8 mph - N/A   Overcast
5:55 PM 45.5 °F 41.3 °F 24.6 °F 44% 29.96 in 10.0 mi NW 8.1 mph - N/A   Overcast
6:15 PM 45.5 °F 42.5 °F 23.9 °F 43% 29.96 in 10.0 mi NW 5.8 mph - N/A   Overcast
6:55 PM 44.8 °F 41.0 °F 23.9 °F 44% 29.98 in 10.0 mi WNW 6.9 mph - N/A   Overcast
7:15 PM 44.6 °F 41.4 °F 22.5 °F 42% 29.99 in 10.0 mi WNW 5.8 mph - N/A   Overcast
7:35 PM 44.2 °F 41.0 °F 23.2 °F 43% 29.99 in 10.0 mi West 5.8 mph - N/A   Overcast
7:55 PM 43.7 °F 40.3 °F 24.1 °F 46% 30.00 in 10.0 mi WNW 5.8 mph - N/A   Overcast
8:15 PM 43.5 °F 40.9 °F 23.9 °F 46% 30.01 in 10.0 mi WNW 4.6 mph - N/A   Overcast
8:35 PM 42.4 °F 38.8 °F 23.7 °F 48% 30.02 in 10.0 mi West 5.8 mph - N/A   Scattered Clouds
8:55 PM 41.9 °F 39.0 °F 23.2 °F 47% 30.03 in 10.0 mi WNW 4.6 mph - N/A   Scattered Clouds
9:15 PM 41.2 °F 39.2 °F 23.0 °F 48% 30.04 in 10.0 mi West 3.5 mph - N/A   Scattered Clouds
9:35 PM 40.3 °F 38.2 °F 23.0 °F 50% 30.05 in 10.0 mi West 3.5 mph - N/A   Clear
9:55 PM 40.1 °F 36.1 °F 23.5 °F 52% 30.06 in 10.0 mi West 5.8 mph - N/A   Clear
10:15 PM 39.7 °F 35.6 °F 23.5 °F 52% 30.06 in 10.0 mi West 5.8 mph - N/A   Clear
10:35 PM 39.0 °F 34.0 °F 23.9 °F 55% 30.07 in 10.0 mi West 6.9 mph - N/A   Clear
10:55 PM 38.7 °F 33.6 °F 23.9 °F 55% 30.07 in 10.0 mi WNW 6.9 mph - N/A   Clear
11:15 PM 38.5 °F 34.1 °F 23.9 °F 56% 30.07 in 10.0 mi West 5.8 mph - N/A   Clear
11:35 PM 38.1 °F 32.9 °F 24.3 °F 57% 30.08 in 10.0 mi West 6.9 mph - N/A   Clear
11:55 PM 38.3 °F 33.2 °F 24.3 °F 57% 30.08 in 10.0 mi WNW 6.9 mph - N/A   Clear